Time;durP1;ratioP1;P1;durP2;ratioP2;P2;SDS_P1;SDS_P2;PMS_P1;PMS_P2;Temp;Humidity;BMP_temperature;BMP_pressure;BME280_temperature;BME280_humidity;BME280_pressure;Samples;Min_cycle;Max_cycle;Signal;HPM_P1;HPM_P2
2022/10/30 00:01:15;;;;;;;;;;;;;;;17.53;88.92;100679.22;5031918;28;1872;-63
2022/10/30 00:03:40;;;;;;;;;;;;;;;17.53;87.78;100672.88;5031575;28;2163;-63
2022/10/30 00:06:05;;;;;;;;;;;;;;;17.52;87.69;100666.56;5030972;28;1986;-63
2022/10/30 00:08:31;;;;;;;;;;;;;;;17.52;88.50;100669.31;5032578;28;1884;-64
2022/10/30 00:10:56;;;;;;;;;;;;;;;17.52;88.64;100666.56;5030866;28;2184;-63
2022/10/30 00:13:21;;;;;;;;;;;;;;;17.52;87.79;100665.75;5031325;28;1941;-63
2022/10/30 00:15:50;;;;;;;;;;;;;;;17.52;88.14;100668.50;5029578;28;1968;-64
2022/10/30 00:18:15;;;;;;;;;;;;;;;17.53;88.58;100672.88;5026974;28;1897;-63
2022/10/30 00:20:41;;;;;;;;;;;;;;;17.51;88.66;100667.69;5031386;28;2017;-64
2022/10/30 00:23:06;;;;;;;;;;;;;;;17.52;88.13;100674.84;5029000;28;1900;-63
2022/10/30 00:25:33;;;;;;;;;;;;;;;17.52;88.09;100671.28;5024067;28;1829;-63
2022/10/30 00:27:58;;;;;;;;;;;;;;;17.52;88.01;100668.50;5025882;28;1622;-63
2022/10/30 00:30:23;;;;;;;;;;;;;;;17.55;88.38;100673.38;5033023;28;892;-64
2022/10/30 00:32:48;;;;;;;;;;;;;;;17.53;87.73;100662.63;5032171;28;2181;-63
2022/10/30 00:35:13;;;;;;;;;;;;;;;17.54;87.85;100669.78;5032667;28;1963;-63
2022/10/30 00:37:38;;;;;;;;;;;;;;;17.54;88.65;100675.31;5032467;28;1032;-63
2022/10/30 00:40:05;;;;;;;;;;;;;;;17.54;88.92;100669.78;5033143;28;881;-63
2022/10/30 00:42:31;;;;;;;;;;;;;;;17.55;88.49;100665.06;5032338;28;2483;-63
2022/10/30 00:44:56;;;;;;;;;;;;;;;17.56;88.00;100677.78;5032283;28;1758;-63
2022/10/30 00:47:31;;;;;;;;;;;;;;;17.56;88.45;100672.25;5032454;28;1581;-63
2022/10/30 00:50:08;;;;;;;;;;;;;;;17.56;88.41;100670.28;5033123;28;814;-63
2022/10/30 00:52:36;;;;;;;;;;;;;;;17.55;88.99;100671.44;5032076;28;2072;-63
2022/10/30 00:55:05;;;;;;;;;;;;;;;17.57;89.40;100677.47;5032865;28;1899;-64
2022/10/30 00:57:31;;;;;;;;;;;;;;;17.56;88.96;100670.28;5032674;28;1102;-64
2022/10/30 00:59:56;;;;;;;;;;;;;;;17.57;89.51;100677.47;5032626;28;1948;-63
2022/10/30 01:02:21;;;;;;;;;;;;;;;17.57;88.57;100674.69;5028680;28;1961;-63
2022/10/30 01:04:48;;;;;;;;;;;;;;;17.58;88.61;100673.56;5028133;28;1948;-63
2022/10/30 01:07:14;;;;;;;;;;;;;;;17.57;89.00;100663.63;5031764;28;1737;-63
2022/10/30 01:09:40;;;;;;;;;;;;;;;17.58;88.68;100667.22;5032820;28;1634;-64
2022/10/30 01:12:06;;;;;;;;;;;;;;;17.58;88.46;100665.25;5027838;28;1865;-63
2022/10/30 01:14:32;;;;;;;;;;;;;;;17.58;88.38;100659.72;5029347;28;1778;-63
2022/10/30 01:17:07;;;;;;;;;;;;;;;17.57;89.39;100660.84;5032242;28;1889;-63
2022/10/30 01:19:33;;;;;;;;;;;;;;;17.58;89.26;100653.38;5033034;28;1573;-63
2022/10/30 01:22:17;;;;;;;;;;;;;;;17.58;89.24;100659.72;5030936;28;1877;-63
2022/10/30 01:24:48;;;;;;;;;;;;;;;17.58;88.94;100659.72;5032812;28;1658;-63
2022/10/30 01:27:26;;;;;;;;;;;;;;;17.58;88.75;100654.19;5030039;28;2027;-64
2022/10/30 01:29:54;;;;;;;;;;;;;;;17.59;89.63;100655.00;5028379;28;1865;-63
2022/10/30 01:32:37;;;;;;;;;;;;;;;17.60;89.75;100651.09;5030163;28;2289;-64
2022/10/30 01:35:19;;;;;;;;;;;;;;;17.59;89.47;100646.69;5030449;28;1918;-63
2022/10/30 01:37:53;;;;;;;;;;;;;;;17.59;88.91;100649.47;5031459;28;1630;-63
2022/10/30 01:40:20;;;;;;;;;;;;;;;17.59;89.72;100653.06;5031729;28;1873;-63
2022/10/30 01:42:47;;;;;;;;;;;;;;;17.60;89.83;100645.56;5030673;28;1875;-63
2022/10/30 01:45:18;;;;;;;;;;;;;;;17.59;89.89;100650.28;5030652;28;1909;-63
2022/10/30 01:48:08;;;;;;;;;;;;;;;17.59;89.96;100647.50;5032123;28;1896;-63
2022/10/30 01:50:51;;;;;;;;;;;;;;;17.58;90.33;100654.19;5035299;28;1806;-63
2022/10/30 01:53:16;;;;;;;;;;;;;;;17.58;89.97;100648.66;5030484;28;1681;-63
2022/10/30 01:55:53;;;;;;;;;;;;;;;17.59;90.03;100643.94;5035071;28;1894;-64
2022/10/30 01:58:21;;;;;;;;;;;;;;;17.58;90.75;100647.84;5034164;28;1835;-63
2022/10/30 02:00:50;;;;;;;;;;;;;;;17.57;90.72;100646.19;5034171;28;1800;-62
2022/10/30 02:03:15;;;;;;;;;;;;;;;17.57;91.25;100651.72;5034336;28;1891;-63
2022/10/30 02:05:42;;;;;;;;;;;;;;;17.56;90.49;100650.91;5034039;28;2051;-63
2022/10/30 02:08:07;;;;;;;;;;;;;;;17.56;90.41;100645.38;5035532;28;1547;-63
2022/10/30 02:10:34;;;;;;;;;;;;;;;17.56;90.00;100650.09;5034339;28;1916;-64
2022/10/30 02:13:00;;;;;;;;;;;;;;;17.56;90.01;100659.22;5030659;28;1915;-63
2022/10/30 02:15:25;;;;;;;;;;;;;;;17.57;90.58;100654.50;5034622;28;1898;-64
2022/10/30 02:17:50;;;;;;;;;;;;;;;17.56;90.19;100653.69;5020685;28;1966;-64
2022/10/30 02:20:17;;;;;;;;;;;;;;;17.57;90.58;100647.00;5029898;28;1928;-63
2022/10/30 02:22:42;;;;;;;;;;;;;;;17.57;90.13;100637.91;5034492;28;1927;-64
2022/10/30 02:25:07;;;;;;;;;;;;;;;17.56;90.34;100650.09;5034649;28;1909;-64
2022/10/30 02:27:32;;;;;;;;;;;;;;;17.56;91.53;100650.91;5033228;28;2134;-64
2022/10/30 02:29:59;;;;;;;;;;;;;;;17.57;90.94;100655.31;5033915;28;1806;-63
2022/10/30 02:32:24;;;;;;;;;;;;;;;17.57;90.53;100649.78;5034161;28;1872;-64
2022/10/30 02:34:50;;;;;;;;;;;;;;;17.56;90.94;100648.16;5034138;28;1952;-64
2022/10/30 02:37:15;;;;;;;;;;;;;;;17.57;91.10;100660.84;5031711;28;2050;-63
2022/10/30 02:39:40;;;;;;;;;;;;;;;17.57;91.90;100660.03;5033065;28;1863;-64
2022/10/30 02:42:05;;;;;;;;;;;;;;;17.56;90.97;100653.69;5034251;28;1878;-63
2022/10/30 02:44:30;;;;;;;;;;;;;;;17.56;91.75;100645.38;5033197;28;1809;-63
2022/10/30 02:46:55;;;;;;;;;;;;;;;17.57;90.54;100648.97;5033015;28;1868;-64
2022/10/30 02:49:20;;;;;;;;;;;;;;;17.56;91.89;100645.38;5028292;28;1909;-63
2022/10/30 02:51:46;;;;;;;;;;;;;;;17.56;91.92;100645.38;5034933;28;1656;-63
2022/10/30 02:54:11;;;;;;;;;;;;;;;17.56;92.13;100650.09;5026480;28;1604;-64
2022/10/30 02:56:39;;;;;;;;;;;;;;;17.56;90.71;100647.34;5014887;28;2165;-63
2022/10/30 02:59:04;;;;;;;;;;;;;;;17.56;91.72;100645.38;5033836;28;1610;-63
2022/10/30 03:01:29;;;;;;;;;;;;;;;17.56;91.60;100644.56;5034784;28;1585;-64
2022/10/30 03:03:54;;;;;;;;;;;;;;;17.57;91.40;100640.66;5034814;28;1336;-63
2022/10/30 03:06:19;;;;;;;;;;;;;;;17.57;92.25;100641.47;5034476;28;995;-64
2022/10/30 03:08:45;;;;;;;;;;;;;;;17.55;91.56;100638.22;5033741;28;2178;-63
2022/10/30 03:11:12;;;;;;;;;;;;;;;17.57;90.83;100652.56;5034931;28;1629;-64
2022/10/30 03:13:39;;;;;;;;;;;;;;;17.56;92.03;100645.38;5034898;28;1269;-64
2022/10/30 03:16:09;;;;;;;;;;;;;;;17.56;91.82;100650.91;5034324;28;1906;-65
2022/10/30 03:18:34;;;;;;;;;;;;;;;17.56;91.92;100645.38;5031045;28;2211;-64
2022/10/30 03:21:01;;;;;;;;;;;;;;;17.58;91.60;100664.44;5028232;28;1913;-64
2022/10/30 03:23:26;;;;;;;;;;;;;;;17.58;91.00;100658.91;5063381;23;1801;-66
2022/10/30 03:25:53;;;;;;;;;;;;;;;17.58;91.99;100667.22;5052751;28;1636;-65
2022/10/30 03:28:18;;;;;;;;;;;;;;;17.56;92.18;100664.75;5052204;28;1915;-66
2022/10/30 03:30:43;;;;;;;;;;;;;;;17.55;91.76;100667.84;5051782;28;1725;-65
2022/10/30 03:33:08;;;;;;;;;;;;;;;17.56;91.40;100661.16;5053106;28;1717;-66
2022/10/30 03:35:34;;;;;;;;;;;;;;;17.56;91.99;100675.81;5051952;28;1964;-67
2022/10/30 03:37:59;;;;;;;;;;;;;;;17.55;92.71;100670.59;5052430;28;1838;-65
2022/10/30 03:40:24;;;;;;;;;;;;;;;17.55;91.33;100671.44;5051177;28;1908;-66
2022/10/30 03:42:50;;;;;;;;;;;;;;;17.54;91.88;100658.72;5051250;28;1808;-66
2022/10/30 03:45:15;;;;;;;;;;;;;;;17.55;91.70;100665.06;5052296;28;1859;-66
2022/10/30 03:47:40;;;;;;;;;;;;;;;17.54;91.53;100658.72;5052560;28;1765;-65
2022/10/30 03:50:05;;;;;;;;;;;;;;;17.54;92.27;100652.38;5050404;28;1857;-65
2022/10/30 03:52:30;;;;;;;;;;;;;;;17.54;92.56;100664.25;5052513;28;1621;-66
2022/10/30 03:54:55;;;;;;;;;;;;;;;17.54;92.28;100664.25;5051208;28;1885;-66
2022/10/30 03:57:20;;;;;;;;;;;;;;;17.53;91.94;100654.31;5053303;28;1952;-66
2022/10/30 03:59:46;;;;;;;;;;;;;;;17.53;91.55;100657.09;5050472;28;1869;-66
2022/10/30 04:02:11;;;;;;;;;;;;;;;17.53;92.67;100659.03;5051786;28;1888;-66
2022/10/30 04:04:36;;;;;;;;;;;;;;;17.53;91.73;100665.38;5051660;28;2393;-66
2022/10/30 04:07:01;;;;;;;;;;;;;;;17.52;91.46;100661.03;5052051;28;1972;-66
2022/10/30 04:09:26;;;;;;;;;;;;;;;17.52;92.63;100661.03;5051529;28;1843;-67
2022/10/30 04:11:51;;;;;;;;;;;;;;;17.51;91.53;100651.09;5049852;28;2295;-66
2022/10/30 04:14:16;;;;;;;;;;;;;;;17.50;92.82;100657.75;5052502;28;1664;-66
2022/10/30 04:16:42;;;;;;;;;;;;;;;17.51;92.13;100658.56;5051401;28;1969;-65
2022/10/30 04:19:07;;;;;;;;;;;;;;;17.51;92.24;100658.56;5051307;28;1814;-65
2022/10/30 04:21:32;;;;;;;;;;;;;;;17.48;91.81;100657.25;5051392;28;1782;-66
2022/10/30 04:23:57;;;;;;;;;;;;;;;17.49;91.84;100660.84;5050412;28;2073;-66
2022/10/30 04:26:22;;;;;;;;;;;;;;;17.48;91.61;100665.56;5051708;28;2109;-65
2022/10/30 04:28:48;;;;;;;;;;;;;;;17.48;92.16;100665.56;5052789;28;1273;-67
2022/10/30 04:31:13;;;;;;;;;;;;;;;17.48;92.23;100664.75;5052317;28;2157;-66
2022/10/30 04:33:38;;;;;;;;;;;;;;;17.47;92.43;100660.34;5051792;28;1845;-66
2022/10/30 04:36:03;;;;;;;;;;;;;;;17.46;91.59;100656.75;5052756;28;1906;-66
2022/10/30 04:38:28;;;;;;;;;;;;;;;17.47;91.73;100663.09;5053196;28;959;-66
2022/10/30 04:40:53;;;;;;;;;;;;;;;17.45;91.90;100657.88;5052065;28;2258;-67
2022/10/30 04:43:19;;;;;;;;;;;;;;;17.45;91.67;100657.06;5052983;28;1514;-65
2022/10/30 04:45:44;;;;;;;;;;;;;;;17.45;92.60;100666.19;5052746;28;957;-66
2022/10/30 04:48:10;;;;;;;;;;;;;;;17.45;92.59;100671.72;5052996;28;742;-66
2022/10/30 04:50:35;;;;;;;;;;;;;;;17.45;92.75;100673.69;5051812;28;2258;-66
2022/10/30 04:53:02;;;;;;;;;;;;;;;17.44;92.84;100664.56;5052822;28;1517;-65
2022/10/30 04:55:27;;;;;;;;;;;;;;;17.45;92.84;100668.13;5052999;28;1946;-65
2022/10/30 04:57:57;;;;;;;;;;;;;;;17.44;93.20;100666.53;5052699;28;766;-65
2022/10/30 05:00:22;;;;;;;;;;;;;;;17.44;92.91;100674.84;5052164;28;2283;-66
2022/10/30 05:02:47;;;;;;;;;;;;;;;17.43;91.82;100684.28;5051778;28;1870;-66
2022/10/30 05:05:12;;;;;;;;;;;;;;;17.44;91.94;100680.38;5051733;28;1585;-66
2022/10/30 05:07:37;;;;;;;;;;;;;;;17.43;93.08;100678.75;5051278;28;1700;-65
2022/10/30 05:10:03;;;;;;;;;;;;;;;17.42;92.16;100683.47;5050996;28;1710;-66
2022/10/30 05:12:28;;;;;;;;;;;;;;;17.42;91.91;100677.91;5046235;28;1946;-65
2022/10/30 05:14:53;;;;;;;;;;;;;;;17.41;91.98;100670.75;5051783;28;1576;-66
2022/10/30 05:17:18;;;;;;;;;;;;;;;17.41;93.49;100670.75;5048708;28;2165;-65
2022/10/30 05:19:43;;;;;;;;;;;;;;;17.40;92.08;100658.06;5048807;28;2107;-66
2022/10/30 05:22:09;;;;;;;;;;;;;;;17.40;93.52;100644.22;5052811;28;1795;-66
2022/10/30 05:24:34;;;;;;;;;;;;;;;17.40;92.27;100638.69;5048084;28;1780;-65
2022/10/30 05:26:59;;;;;;;;;;;;;;;17.40;92.94;100661.63;5055312;28;1778;-66
2022/10/30 05:29:24;;;;;;;;;;;;;;;17.39;93.01;100659.19;5056450;28;1510;-66
2022/10/30 05:31:49;;;;;;;;;;;;;;;17.38;92.85;100639.00;5056441;28;868;-65
2022/10/30 05:34:15;;;;;;;;;;;;;;;17.39;93.41;100648.94;5056302;28;1319;-66
2022/10/30 05:36:40;;;;;;;;;;;;;;;17.38;92.58;100638.19;5053829;28;1957;-65
2022/10/30 05:39:05;;;;;;;;;;;;;;;17.37;92.34;100640.13;5055320;28;1879;-66
2022/10/30 05:41:30;;;;;;;;;;;;;;;17.38;93.42;100646.47;5054230;28;1906;-66
2022/10/30 05:43:55;;;;;;;;;;;;;;;17.38;92.08;100640.94;5054239;28;1984;-66
2022/10/30 05:46:21;;;;;;;;;;;;;;;17.37;92.63;100651.19;5054302;28;2039;-65
2022/10/30 05:48:46;;;;;;;;;;;;;;;17.36;92.49;100644.03;5046761;28;1803;-66
2022/10/30 05:51:11;;;;;;;;;;;;;;;17.37;92.98;100650.38;5054379;28;1922;-66
2022/10/30 05:53:36;;;;;;;;;;;;;;;17.37;92.07;100658.69;5054268;28;1922;-65
2022/10/30 05:56:01;;;;;;;;;;;;;;;17.36;92.67;100652.34;5053302;28;1949;-67
2022/10/30 05:58:26;;;;;;;;;;;;;;;17.35;92.69;100653.47;5053359;28;2228;-65
2022/10/30 06:00:51;;;;;;;;;;;;;;;17.36;93.57;100663.41;5053871;28;1651;-66
2022/10/30 06:03:17;;;;;;;;;;;;;;;17.36;92.54;100665.34;5054818;28;1754;-65
2022/10/30 06:05:45;;;;;;;;;;;;;;;17.36;93.64;100668.13;5054086;28;1731;-67
2022/10/30 06:08:10;;;;;;;;;;;;;;;17.35;92.18;100666.53;5054472;28;2243;-66
2022/10/30 06:10:36;;;;;;;;;;;;;;;17.34;92.87;100665.69;5051478;28;2070;-66
2022/10/30 06:13:02;;;;;;;;;;;;;;;17.34;92.30;100667.66;5053625;28;1936;-66
2022/10/30 06:15:28;;;;;;;;;;;;;;;17.35;93.17;100663.75;5054459;28;1998;-66
2022/10/30 06:17:53;;;;;;;;;;;;;;;17.35;92.76;100672.84;5045036;28;1996;-66
2022/10/30 06:20:20;;;;;;;;;;;;;;;17.35;93.34;100677.59;5054420;28;1808;-65
2022/10/30 06:22:54;;;;;;;;;;;;;;;17.34;92.99;100674.00;5052842;28;1883;-65
2022/10/30 06:25:20;;;;;;;;;;;;;;;17.34;92.38;100682.31;5051036;28;2071;-66
2022/10/30 06:27:45;;;;;;;;;;;;;;;17.33;93.41;100680.66;5052144;28;1993;-66
2022/10/30 06:30:10;;;;;;;;;;;;;;;17.24;93.71;100667.94;5050385;28;1868;-66
2022/10/30 06:32:35;;;;;;;;;;;;;;;17.36;92.72;100684.72;5054297;28;2310;-66
2022/10/30 06:35:00;;;;;;;;;;;;;;;17.37;93.49;100694.66;5054228;28;844;-66
2022/10/30 06:37:26;;;;;;;;;;;;;;;17.41;93.11;100692.88;5047519;28;2151;-65
2022/10/30 06:39:51;;;;;;;;;;;;;;;17.40;93.76;100700.38;5051845;28;1756;-66
2022/10/30 06:42:16;;;;;;;;;;;;;;;17.39;92.61;100701.50;5046398;28;1699;-65
2022/10/30 06:44:41;;;;;;;;;;;;;;;17.40;92.28;100702.31;5040651;28;1790;-66
2022/10/30 06:47:06;;;;;;;;;;;;;;;17.38;93.18;100702.63;5046371;28;1864;-65
2022/10/30 06:49:31;;;;;;;;;;;;;;;17.38;93.04;100712.91;5042601;28;1938;-66
2022/10/30 06:51:56;;;;;;;;;;;;;;;17.38;93.54;100713.72;5052401;28;1398;-66
2022/10/30 06:54:22;;;;;;;;;;;;;;;17.38;93.60;100708.19;5035055;28;1885;-65
2022/10/30 06:56:50;;;;;;;;;;;;;;;17.38;92.80;100699.88;5045092;28;2002;-66
2022/10/30 06:59:15;;;;;;;;;;;;;;;17.37;93.99;100702.97;5038595;28;1769;-67
2022/10/30 07:01:40;;;;;;;;;;;;;;;17.37;93.83;100712.06;5049073;28;2295;-65
2022/10/30 07:04:06;;;;;;;;;;;;;;;17.38;93.85;100701.81;5040785;28;2063;-66
2022/10/30 07:06:31;;;;;;;;;;;;;;;17.37;92.54;100703.78;5042714;28;1600;-65
2022/10/30 07:08:56;;;;;;;;;;;;;;;17.37;92.66;100706.53;5048603;28;1958;-66
2022/10/30 07:11:21;;;;;;;;;;;;;;;17.39;92.61;100717.28;5054455;28;1416;-66
2022/10/30 07:13:46;;;;;;;;;;;;;;;17.39;92.62;100728.38;5041837;28;2026;-66
2022/10/30 07:16:12;;;;;;;;;;;;;;;17.11;92.38;100677.97;5043913;28;1968;-66
2022/10/30 07:18:37;;;;;;;;;;;;;;;17.37;92.39;100725.09;5044645;28;1606;-65
2022/10/30 07:21:02;;;;;;;;;;;;;;;17.37;93.46;100719.56;5039515;28;2010;-66
2022/10/30 07:23:27;;;;;;;;;;;;;;;17.37;92.57;100716.78;5052486;28;2006;-66
2022/10/30 07:25:52;;;;;;;;;;;;;;;17.38;92.52;100722.00;5048966;28;2034;-65
2022/10/30 07:28:17;;;;;;;;;;;;;;;17.37;92.65;100725.09;5053072;28;1946;-65
2022/10/30 07:30:42;;;;;;;;;;;;;;;17.38;92.67;100726.72;5053552;28;1974;-66
2022/10/30 07:33:09;;;;;;;;;;;;;;;17.38;93.49;100732.25;5053616;28;1782;-65
2022/10/30 07:35:35;;;;;;;;;;;;;;;17.38;94.07;100721.19;5053939;28;1959;-66
2022/10/30 07:38:01;;;;;;;;;;;;;;;17.38;93.89;100730.31;5052709;28;1926;-66
2022/10/30 07:40:26;;;;;;;;;;;;;;;17.38;93.09;100718.44;5053960;28;1596;-66
2022/10/30 07:42:55;;;;;;;;;;;;;;;17.39;93.29;100728.38;5051633;28;2018;-65
2022/10/30 07:45:20;;;;;;;;;;;;;;;17.44;92.80;100719.91;5050486;28;2135;-66
2022/10/30 07:47:45;;;;;;;;;;;;;;;17.55;92.13;100714.91;5050999;28;1837;-66
2022/10/30 07:50:11;;;;;;;;;;;;;;;17.50;91.71;100717.81;5053740;28;1619;-66
2022/10/30 07:52:36;;;;;;;;;;;;;;;17.44;92.19;100722.66;5052699;28;1643;-66
2022/10/30 07:55:01;;;;;;;;;;;;;;;17.41;92.01;100715.03;5052937;28;1791;-66
2022/10/30 07:57:29;;;;;;;;;;;;;;;17.39;92.03;100709.00;5052223;28;1953;-66
2022/10/30 07:59:54;;;;;;;;;;;;;;;17.36;92.68;100715.16;5053636;28;1604;-65
2022/10/30 08:02:19;;;;;;;;;;;;;;;17.37;92.13;100714.03;5049597;28;1852;-66
2022/10/30 08:04:44;;;;;;;;;;;;;;;17.47;92.63;100712.91;5050907;28;1894;-66
2022/10/30 08:07:10;;;;;;;;;;;;;;;17.55;92.56;100710.19;5053208;28;1576;-65
2022/10/30 08:09:35;;;;;;;;;;;;;;;17.58;92.26;100717.84;5051637;28;1940;-66
2022/10/30 08:12:00;;;;;;;;;;;;;;;17.62;91.21;100724.38;5045847;28;1649;-66
2022/10/30 08:14:25;;;;;;;;;;;;;;;17.63;90.85;100708.59;5043917;28;1797;-66
2022/10/30 08:16:50;;;;;;;;;;;;;;;17.52;89.71;100710.03;5044674;28;1894;-66
2022/10/30 08:19:15;;;;;;;;;;;;;;;17.48;90.30;100704.31;5044902;28;2134;-66
2022/10/30 08:21:41;;;;;;;;;;;;;;;17.46;90.69;100705.75;5050515;28;1578;-66
2022/10/30 08:24:06;;;;;;;;;;;;;;;17.45;91.25;100702.16;5046830;28;2050;-66
2022/10/30 08:26:31;;;;;;;;;;;;;;;17.43;91.62;100703.66;5051107;28;1944;-66
2022/10/30 08:28:56;;;;;;;;;;;;;;;17.40;92.38;100703.16;5053331;28;1658;-66
2022/10/30 08:31:21;;;;;;;;;;;;;;;17.39;91.82;100704.28;5052022;28;1635;-66
2022/10/30 08:33:46;;;;;;;;;;;;;;;17.38;91.31;100701.81;5052135;28;1543;-65
2022/10/30 08:36:12;;;;;;;;;;;;;;;17.37;92.60;100708.50;5050988;28;1953;-65
2022/10/30 08:38:37;;;;;;;;;;;;;;;17.35;91.37;100711.56;5050799;28;1880;-66
2022/10/30 08:41:02;;;;;;;;;;;;;;;17.35;92.23;100711.56;5050399;28;1876;-65
2022/10/30 08:43:27;;;;;;;;;;;;;;;17.34;91.23;100704.44;5049119;28;1894;-66
2022/10/30 08:45:52;;;;;;;;;;;;;;;17.34;91.28;100698.91;5047982;28;1755;-65
2022/10/30 08:48:18;;;;;;;;;;;;;;;17.33;92.35;100697.25;5049269;28;1569;-67
2022/10/30 08:50:43;;;;;;;;;;;;;;;17.33;91.70;100691.72;5049006;28;1826;-65
2022/10/30 08:53:12;;;;;;;;;;;;;;;17.32;91.33;100684.56;5052094;28;1871;-66
2022/10/30 08:55:37;;;;;;;;;;;;;;;17.31;92.29;100693.19;5051605;28;1898;-65
2022/10/30 08:58:03;;;;;;;;;;;;;;;17.30;91.87;100680.47;5055121;28;1533;-65
2022/10/30 09:00:28;;;;;;;;;;;;;;;17.31;91.19;100688.47;5052962;28;1865;-66
2022/10/30 09:02:54;;;;;;;;;;;;;;;17.31;92.40;100695.94;5052270;28;2075;-65
2022/10/30 09:05:19;;;;;;;;;;;;;;;17.30;91.72;100697.09;5050333;28;1798;-66
2022/10/30 09:07:45;;;;;;;;;;;;;;;17.30;91.89;100697.09;5055505;28;1613;-67
2022/10/30 09:10:10;;;;;;;;;;;;;;;17.30;92.04;100695.13;5056671;28;963;-66
2022/10/30 09:12:35;;;;;;;;;;;;;;;17.29;91.39;100696.25;5056196;28;1907;-66
2022/10/30 09:15:01;;;;;;;;;;;;;;;17.28;91.13;100691.88;5056548;28;1690;-66
2022/10/30 09:17:26;;;;;;;;;;;;;;;17.27;91.54;100695.75;5055772;28;1902;-66
2022/10/30 09:19:51;;;;;;;;;;;;;;;17.27;90.90;100695.75;5051537;28;1563;-66
2022/10/30 09:22:16;;;;;;;;;;;;;;;17.28;91.50;100697.41;5037761;28;1696;-66
2022/10/30 09:24:42;;;;;;;;;;;;;;;17.27;91.72;100701.28;5056396;28;1220;-66
2022/10/30 09:27:07;;;;;;;;;;;;;;;17.27;90.92;100703.25;5054545;28;1883;-66
2022/10/30 09:29:32;;;;;;;;;;;;;;;17.27;91.23;100704.06;5053766;28;1527;-66
2022/10/30 09:31:58;;;;;;;;;;;;;;;17.27;91.42;100703.25;5056149;28;869;-66
2022/10/30 09:34:23;;;;;;;;;;;;;;;17.28;91.43;100705.69;5056310;28;1225;-66
2022/10/30 09:36:48;;;;;;;;;;;;;;;17.26;90.46;100702.47;5055440;28;1962;-66
2022/10/30 09:39:14;;;;;;;;;;;;;;;17.23;90.44;100713.34;5056161;28;979;-66
2022/10/30 09:41:42;;;;;;;;;;;;;;;17.22;90.02;100712.53;5055279;28;1701;-65
2022/10/30 09:44:15;;;;;;;;;;;;;;;17.21;89.94;100715.59;5053284;28;1868;-67
2022/10/30 09:46:59;;;;;;;;;;;;;;;17.23;90.40;100708.63;5055120;28;1599;-66
2022/10/30 09:49:30;;;;;;;;;;;;;;;17.23;90.14;100710.56;5056712;22;3626;-63
2022/10/30 09:51:58;;;;;;;;;;;;;;;17.22;89.30;100715.28;5036286;28;821;-64
2022/10/30 09:54:35;;;;;;;;;;;;;;;17.23;90.75;100707.81;5036191;28;1031;-64
2022/10/30 09:57:10;;;;;;;;;;;;;;;17.24;89.91;100709.44;5033704;28;1906;-63
2022/10/30 09:59:43;;;;;;;;;;;;;;;17.26;89.39;100701.63;5034650;28;1628;-64
2022/10/30 10:02:15;;;;;;;;;;;;;;;17.25;89.62;100697.25;5035884;28;1629;-63
2022/10/30 10:04:48;;;;;;;;;;;;;;;17.25;89.71;100700.00;5034710;28;1800;-64
2022/10/30 10:07:24;;;;;;;;;;;;;;;17.26;89.37;100707.16;5034640;28;1616;-64
2022/10/30 10:09:58;;;;;;;;;;;;;;;17.26;89.42;100710.75;5034594;28;1873;-64
2022/10/30 10:12:32;;;;;;;;;;;;;;;17.27;89.24;100708.78;5031451;28;1649;-65
2022/10/30 10:14:59;;;;;;;;;;;;;;;17.26;90.45;100715.47;5028483;28;1655;-63
2022/10/30 10:17:30;;;;;;;;;;;;;;;17.25;89.34;100706.34;5035325;28;1943;-64
2022/10/30 10:19:58;;;;;;;;;;;;;;;17.26;90.30;100701.63;5035654;28;1003;-64
2022/10/30 10:22:24;;;;;;;;;;;;;;;17.26;90.21;100701.63;5035807;28;887;-64
2022/10/30 10:24:49;;;;;;;;;;;;;;;17.26;89.85;100707.16;5035594;28;837;-64
2022/10/30 10:27:41;;;;;;;;;;;;;;;17.25;90.24;100695.28;5034433;28;1564;-63
2022/10/30 10:30:15;;;;;;;;;;;;;;;17.26;90.35;100701.63;5029394;28;1542;-64
2022/10/30 10:32:59;;;;;;;;;;;;;;;17.26;89.53;100707.16;5035578;28;815;-64
2022/10/30 10:35:41;;;;;;;;;;;;;;;17.26;88.99;100708.00;5035427;28;1909;-64
2022/10/30 10:38:16;;;;;;;;;;;;;;;17.26;89.28;100699.69;5035006;28;1205;-64
2022/10/30 10:40:50;;;;;;;;;;;;;;;17.25;88.75;100694.47;5033198;28;1626;-63
2022/10/30 10:43:24;;;;;;;;;;;;;;;17.25;89.07;100689.75;5027858;28;1915;-63
2022/10/30 10:46:04;;;;;;;;;;;;;;;17.27;88.98;100694.94;5035023;28;1546;-64
2022/10/30 10:48:43;;;;;;;;;;;;;;;17.25;89.37;100695.28;5024451;28;1702;-63
2022/10/30 10:51:14;;;;;;;;;;;;;;;17.27;88.55;100687.47;5029646;28;1975;-63
2022/10/30 10:53:41;;;;;;;;;;;;;;;17.33;88.04;100690.91;5032082;28;2102;-63
2022/10/30 10:56:08;;;;;;;;;;;;;;;17.37;87.29;100686.34;5033388;28;1929;-64
2022/10/30 10:58:39;;;;;;;;;;;;;;;17.39;87.60;100673.03;5032937;28;1680;-64
2022/10/30 11:01:07;;;;;;;;;;;;;;;17.41;88.18;100676.28;5028255;28;2128;-64
2022/10/30 11:03:47;;;;;;;;;;;;;;;17.43;88.28;100673.22;5032265;28;1561;-64
2022/10/30 11:06:21;;;;;;;;;;;;;;;17.43;88.80;100667.66;5034515;28;1493;-62
2022/10/30 11:08:48;;;;;;;;;;;;;;;17.43;87.58;100662.94;5033010;28;1952;-63
2022/10/30 11:11:13;;;;;;;;;;;;;;;17.45;87.85;100663.41;5027468;28;1918;-63
2022/10/30 11:13:39;;;;;;;;;;;;;;;17.46;88.53;100662.28;5027757;28;2028;-63
2022/10/30 11:16:20;;;;;;;;;;;;;;;17.48;88.10;100662.78;5034081;28;1957;-63
2022/10/30 11:18:46;;;;;;;;;;;;;;;17.49;87.84;100656.13;5034510;28;1873;-63
2022/10/30 11:21:17;;;;;;;;;;;;;;;17.51;87.93;100661.34;5031897;28;1884;-64
2022/10/30 11:23:43;;;;;;;;;;;;;;;17.51;89.03;100656.63;5034312;28;1635;-63
2022/10/30 11:26:19;;;;;;;;;;;;;;;17.53;89.20;100647.97;5034263;28;1888;-64
2022/10/30 11:28:48;;;;;;;;;;;;;;;17.60;88.13;100645.56;5030432;28;1857;-64
2022/10/30 11:31:29;;;;;;;;;;;;;;;17.61;88.85;100636.91;5031292;28;2075;-64
2022/10/30 11:33:54;;;;;;;;;;;;;;;17.60;88.41;100642.78;5029986;28;1821;-64
2022/10/30 11:36:23;;;;;;;;;;;;;;;17.61;88.25;100645.22;5033729;28;1951;-63
2022/10/30 11:38:48;;;;;;;;;;;;;;;17.62;87.51;100641.34;5033007;28;1714;-64
2022/10/30 11:41:14;;;;;;;;;;;;;;;17.62;87.21;100638.56;5031512;28;2009;-63
2022/10/30 11:43:40;;;;;;;;;;;;;;;17.66;87.66;100639.56;5032267;28;1770;-63
2022/10/30 11:46:10;;;;;;;;;;;;;;;17.67;87.32;100641.19;5032719;28;1619;-63
2022/10/30 11:48:42;;;;;;;;;;;;;;;17.69;88.18;100633.38;5032859;28;1647;-62
2022/10/30 11:51:07;;;;;;;;;;;;;;;17.69;87.81;100633.38;5032001;28;1947;-63
2022/10/30 11:53:38;;;;;;;;;;;;;;;17.72;88.39;100632.72;5032719;28;1771;-64
2022/10/30 11:56:12;;;;;;;;;;;;;;;17.79;87.50;100626.69;5029623;28;2024;-64
2022/10/30 11:58:41;;;;;;;;;;;;;;;17.82;88.88;100628.00;5028403;28;1802;-62
2022/10/30 12:01:12;;;;;;;;;;;;;;;17.86;88.27;100623.47;5020738;28;1729;-63
2022/10/30 12:03:39;;;;;;;;;;;;;;;17.85;88.85;100622.66;5033636;28;1486;-63
2022/10/30 12:06:09;;;;;;;;;;;;;;;17.87;88.00;100613.97;5032363;28;1931;-63
2022/10/30 12:08:34;;;;;;;;;;;;;;;17.91;89.00;100613.03;5032845;28;1821;-63
2022/10/30 12:11:00;;;;;;;;;;;;;;;17.98;87.54;100606.97;5032433;28;1754;-62
2022/10/30 12:13:26;;;;;;;;;;;;;;;18.00;88.66;100597.22;5031432;28;1822;-64
2022/10/30 12:16:06;;;;;;;;;;;;;;;18.02;88.84;100600.47;5030518;28;1938;-63
2022/10/30 12:18:32;;;;;;;;;;;;;;;18.06;88.35;100595.06;5027771;28;1953;-64
2022/10/30 12:20:57;;;;;;;;;;;;;;;18.03;87.72;100592.97;5033302;28;1616;-64
2022/10/30 12:23:24;;;;;;;;;;;;;;;18.06;87.92;100590.34;5031559;28;1935;-62
2022/10/30 12:26:00;;;;;;;;;;;;;;;18.09;87.34;100583.34;5033104;28;1558;-62
2022/10/30 12:28:27;;;;;;;;;;;;;;;18.08;88.25;100581.72;5031956;28;1963;-62
2022/10/30 12:30:56;;;;;;;;;;;;;;;18.08;87.52;100577.00;5031680;28;1886;-64
2022/10/30 12:33:24;;;;;;;;;;;;;;;18.04;87.64;100577.97;5031718;28;1728;-63
2022/10/30 12:35:57;;;;;;;;;;;;;;;18.07;89.06;100578.13;5032001;28;1971;-64
2022/10/30 12:38:28;;;;;;;;;;;;;;;18.05;88.65;100574.06;5029410;28;1966;-63
2022/10/30 12:41:15;;;;;;;;;;;;;;;17.99;88.28;100576.19;5023512;28;1865;-62
2022/10/30 12:43:44;;;;;;;;;;;;;;;17.97;87.77;100575.69;5030874;28;2029;-62
2022/10/30 12:46:15;;;;;;;;;;;;;;;17.92;87.97;100567.56;5030682;28;1868;-63
2022/10/30 12:48:43;;;;;;;;;;;;;;;17.89;88.13;100564.63;5030994;28;1769;-63